createdAt,value
2023-03-06T00:00:20.571Z,91876.66
2023-03-06T00:02:47.070Z,91872.16
2023-03-06T00:05:14.734Z,91868.56
2023-03-06T00:07:41.716Z,91869.34
2023-03-06T00:10:11.182Z,91864.50
2023-03-06T00:12:37.580Z,91860.56
2023-03-06T00:15:05.709Z,91861.03
2023-03-06T00:17:32.296Z,91855.84
2023-03-06T00:19:58.687Z,91851.69
2023-03-06T00:22:25.230Z,91852.50
2023-03-06T00:24:54.202Z,91845.50
2023-03-06T00:27:21.362Z,91840.34
2023-03-06T00:29:50.467Z,91843.47
2023-03-06T00:32:16.956Z,91836.31
2023-03-06T00:34:43.381Z,91834.69
2023-03-06T00:37:09.825Z,91838.31
2023-03-06T00:39:36.933Z,91829.53
2023-03-06T00:42:03.419Z,91824.34
2023-03-06T00:44:29.826Z,91825.97
2023-03-06T00:46:56.225Z,91821.22
2023-03-06T00:49:23.455Z,91822.22
2023-03-06T00:51:49.918Z,91821.66
2023-03-06T00:54:16.321Z,91824.25
2023-03-06T00:56:42.739Z,91818.78
2023-03-06T00:59:10.370Z,91817.41
2023-03-06T01:01:36.878Z,91821.13
2023-03-06T01:04:03.625Z,91809.09
2023-03-06T01:06:30.308Z,91809.22
2023-03-06T01:08:56.733Z,91798.53
2023-03-06T01:11:25.032Z,91804.81
2023-03-06T01:13:51.589Z,91809.97
2023-03-06T01:16:21.287Z,91801.00
2023-03-06T01:18:49.433Z,91788.06
2023-03-06T01:21:16.379Z,91794.03
2023-03-06T01:23:42.984Z,91793.03
2023-03-06T01:26:09.631Z,91788.88
2023-03-06T01:28:37.602Z,91786.03
2023-03-06T01:31:04.638Z,91782.88
2023-03-06T01:33:31.777Z,91782.00
2023-03-06T01:35:58.185Z,91785.94
2023-03-06T01:38:24.733Z,91775.59
2023-03-06T01:40:51.542Z,91772.78
2023-03-06T01:43:32.910Z,91772.78
2023-03-06T01:46:18.158Z,91763.56
2023-03-06T01:48:46.513Z,91764.88
2023-03-06T01:51:12.977Z,91763.88
2023-03-06T01:53:41.545Z,91740.84
2023-03-06T01:56:08.170Z,91741.41
2023-03-06T01:58:34.773Z,91734.66
2023-03-06T02:01:01.252Z,91734.66
2023-03-06T02:03:29.877Z,91729.50
2023-03-06T02:05:57.631Z,91727.56
2023-03-06T02:08:24.479Z,91723.22
2023-03-06T02:11:14.703Z,91727.91
2023-03-06T02:13:43.062Z,91726.56
2023-03-06T02:16:11.135Z,91730.97
2023-03-06T02:18:40.648Z,91721.63
2023-03-06T02:21:09.420Z,91723.41
2023-03-06T02:24:09.622Z,91726.25
2023-03-06T02:26:37.457Z,91726.81
2023-03-06T02:29:04.183Z,91720.63
2023-03-06T02:31:33.265Z,91713.19
2023-03-06T02:34:05.338Z,91716.00
2023-03-06T02:36:35.119Z,91716.00
2023-03-06T02:39:01.952Z,91714.44
2023-03-06T02:41:28.404Z,91706.44
2023-03-06T02:43:55.027Z,91703.63
2023-03-06T02:46:21.589Z,91702.84
2023-03-06T02:48:48.079Z,91705.41
2023-03-06T02:51:14.487Z,91707.56
2023-03-06T02:53:40.963Z,91691.72
2023-03-06T02:56:07.799Z,91685.44
2023-03-06T02:58:34.615Z,91685.66
2023-03-06T03:01:01.266Z,91687.56
2023-03-06T03:03:29.184Z,91677.78
2023-03-06T03:05:57.756Z,91679.13
2023-03-06T03:08:28.636Z,91677.88
2023-03-06T03:10:58.845Z,91670.09
2023-03-06T03:13:29.313Z,91667.75
2023-03-06T03:16:01.056Z,91672.13
2023-03-06T03:18:27.656Z,91667.44
2023-03-06T03:20:54.747Z,91672.13
2023-03-06T03:23:22.866Z,91669.78
2023-03-06T03:25:49.316Z,91664.84
2023-03-06T03:28:17.303Z,91662.25
2023-03-06T03:30:45.440Z,91660.69
2023-03-06T03:33:12.876Z,91670.22
2023-03-06T03:35:39.434Z,91661.72
2023-03-06T03:38:05.868Z,91660.13
2023-03-06T03:40:32.565Z,91661.72
2023-03-06T03:42:59.329Z,91656.53
2023-03-06T03:45:25.845Z,91654.72
2023-03-06T03:47:52.433Z,91641.25
2023-03-06T03:50:20.071Z,91651.03
2023-03-06T03:52:47.299Z,91640.47
2023-03-06T03:55:13.722Z,91636.06
2023-03-06T03:57:43.005Z,91638.44
2023-03-06T04:00:14.751Z,91637.31
2023-03-06T04:02:47.601Z,91630.91
2023-03-06T04:05:27.218Z,91630.13
2023-03-06T04:07:53.696Z,91636.63
2023-03-06T04:10:21.752Z,91633.25
2023-03-06T04:12:49.141Z,91640.22
2023-03-06T04:15:16.426Z,91635.28
2023-03-06T04:17:45.604Z,91637.31
2023-03-06T04:20:16.329Z,91632.16
2023-03-06T04:22:43.934Z,91632.16
2023-03-06T04:25:12.288Z,91628.44
2023-03-06T04:27:38.792Z,91631.03
2023-03-06T04:30:06.703Z,91637.75
2023-03-06T04:32:34.776Z,91631.81
2023-03-06T04:35:01.873Z,91632.59
2023-03-06T04:37:33.545Z,91632.59
2023-03-06T04:40:01.060Z,91626.66
2023-03-06T04:42:27.724Z,91623.38
2023-03-06T04:44:54.099Z,91625.41
2023-03-06T04:47:20.513Z,91627.00
2023-03-06T04:49:46.905Z,91629.00
2023-03-06T04:52:13.347Z,91628.44
2023-03-06T04:54:39.745Z,91612.16
2023-03-06T04:57:06.210Z,91623.38
2023-03-06T04:59:32.608Z,91622.72
2023-03-06T05:01:59.130Z,91629.00
2023-03-06T05:04:25.623Z,91625.41
2023-03-06T05:06:52.025Z,91622.03
2023-03-06T05:09:18.421Z,91621.47
2023-03-06T05:11:44.824Z,91631.13
2023-03-06T05:14:11.211Z,91630.34
2023-03-06T05:16:37.689Z,91628.00
2023-03-06T05:19:04.191Z,91632.59
2023-03-06T05:21:30.597Z,91627.75
2023-03-06T05:23:57.127Z,91630.13
2023-03-06T05:26:23.542Z,91632.47
2023-03-06T05:28:49.934Z,91631.13
2023-03-06T05:31:16.512Z,91622.25
2023-03-06T05:33:42.981Z,91621.16
2023-03-06T05:36:10.292Z,91621.41
2023-03-06T05:38:36.788Z,91620.03
2023-03-06T05:41:03.739Z,91616.44
2023-03-06T05:43:30.171Z,91628.81
2023-03-06T05:46:06.640Z,91616.22
2023-03-06T05:48:34.397Z,91622.88
2023-03-06T05:51:01.631Z,91619.66
2023-03-06T05:53:29.287Z,91628.63
2023-03-06T05:56:01.208Z,91626.72
2023-03-06T05:58:28.822Z,91618.97
2023-03-06T06:00:55.269Z,91628.19
2023-03-06T06:03:22.107Z,91629.75
2023-03-06T06:05:48.676Z,91613.38
2023-03-06T06:08:15.334Z,91618.97
2023-03-06T06:10:41.802Z,91609.81
2023-03-06T06:13:08.581Z,91621.91
2023-03-06T06:15:35.025Z,91626.88
2023-03-06T06:18:01.477Z,91617.22
2023-03-06T06:20:28.442Z,91618.78
2023-03-06T06:22:55.005Z,91619.34
2023-03-06T06:25:21.453Z,91625.75
2023-03-06T06:27:47.900Z,91623.50
2023-03-06T06:30:14.507Z,91623.16
2023-03-06T06:32:41.037Z,91626.75
2023-03-06T06:35:07.699Z,91633.94
2023-03-06T06:37:34.112Z,91629.66
2023-03-06T06:40:00.529Z,91632.38
2023-03-06T06:42:35.185Z,91631.03
2023-03-06T06:45:05.493Z,91632.59
2023-03-06T06:47:34.100Z,91634.38
2023-03-06T06:50:00.699Z,91636.75
2023-03-06T06:52:27.161Z,91641.25
2023-03-06T06:54:53.776Z,91640.34
2023-03-06T06:57:20.252Z,91654.16
2023-03-06T06:59:46.663Z,91650.78
2023-03-06T07:02:15.726Z,91647.75
2023-03-06T07:05:00.384Z,91643.69
2023-03-06T07:07:29.614Z,91643.50
2023-03-06T07:09:56.320Z,91648.56
2023-03-06T07:12:22.835Z,91647.53
2023-03-06T07:14:49.208Z,91653.56
2023-03-06T07:17:15.618Z,91653.25
2023-03-06T07:19:42.035Z,91654.59
2023-03-06T07:22:08.710Z,91666.50
2023-03-06T07:24:35.208Z,91663.59
2023-03-06T07:27:01.617Z,91660.31
2023-03-06T07:29:28.012Z,91662.91
2023-03-06T07:31:54.450Z,91660.88
2023-03-06T07:34:20.845Z,91664.94
2023-03-06T07:36:47.258Z,91660.78
2023-03-06T07:39:13.708Z,91664.94
2023-03-06T07:41:40.122Z,91666.38
2023-03-06T07:44:06.716Z,91665.63
2023-03-06T07:46:33.186Z,91659.66
2023-03-06T07:48:59.667Z,91670.09
2023-03-06T07:51:26.103Z,91667.50
2023-03-06T07:53:52.551Z,91671.69
2023-03-06T07:56:18.995Z,91675.63
2023-03-06T07:58:47.170Z,91677.16
2023-03-06T08:01:19.861Z,91680.44
2023-03-06T08:03:47.177Z,91680.56
2023-03-06T08:06:16.832Z,91681.22
2023-03-06T08:08:44.989Z,91688.53
2023-03-06T08:11:13.674Z,91692.56
2023-03-06T08:13:40.771Z,91702.22
2023-03-06T08:16:07.985Z,91694.47
2023-03-06T08:18:34.560Z,91695.19
2023-03-06T08:21:11.765Z,91692.69
2023-03-06T08:23:38.743Z,91695.84
2023-03-06T08:26:08.923Z,91685.63
2023-03-06T08:28:35.450Z,91684.16
2023-03-06T08:31:10.810Z,91682.47
2023-03-06T08:33:37.514Z,91684.81
2023-03-06T08:36:04.422Z,91689.31
2023-03-06T08:38:30.914Z,91695.28
2023-03-06T08:40:57.740Z,91690.44
2023-03-06T08:43:24.154Z,91699.44
2023-03-06T08:45:54.360Z,91695.84
2023-03-06T08:48:20.866Z,91688.19
2023-03-06T08:50:47.300Z,91696.97
2023-03-06T08:53:13.784Z,91694.06
2023-03-06T08:55:40.600Z,91692.13
2023-03-06T08:58:07.124Z,91692.13
2023-03-06T09:00:33.824Z,91690.44
2023-03-06T09:03:00.338Z,91704.56
2023-03-06T09:05:27.229Z,91699.38
2023-03-06T09:07:53.645Z,91706.13
2023-03-06T09:10:22.647Z,91703.78
2023-03-06T09:12:51.941Z,91707.28
2023-03-06T09:15:20.216Z,91702.69
2023-03-06T09:17:47.334Z,91700.31
2023-03-06T09:20:15.137Z,91705.25
2023-03-06T09:22:45.544Z,91702.69
2023-03-06T09:25:20.116Z,91707.41
2023-03-06T09:27:51.395Z,91702.53
2023-03-06T09:30:22.233Z,91702.41
2023-03-06T09:32:48.657Z,91712.63
2023-03-06T09:35:15.037Z,91704.84
2023-03-06T09:37:41.859Z,91706.22
2023-03-06T09:40:16.622Z,91706.94
2023-03-06T09:42:43.058Z,91708.13
2023-03-06T09:45:13.099Z,91709.78
2023-03-06T09:47:53.182Z,91705.69
2023-03-06T09:50:50.735Z,91721.31
2023-03-06T09:53:20.090Z,91710.22
2023-03-06T09:55:51.883Z,91709.66
2023-03-06T09:58:22.747Z,91709.53
2023-03-06T10:01:01.170Z,91708.44
2023-03-06T10:03:36.156Z,91714.88
2023-03-06T10:06:11.514Z,91707.19
2023-03-06T10:08:59.375Z,91719.53
2023-03-06T10:11:54.658Z,91710.94
2023-03-06T10:14:34.992Z,91710.78
2023-03-06T10:17:01.984Z,91710.63
2023-03-06T10:19:34.565Z,91713.22
2023-03-06T10:22:21.682Z,91714.09
2023-03-06T10:25:19.608Z,91716.44
2023-03-06T10:27:48.959Z,91713.50
2023-03-06T10:30:33.482Z,91712.91
2023-03-06T10:33:19.566Z,91724.28
2023-03-06T10:35:49.489Z,91729.47
2023-03-06T10:38:26.763Z,91723.97
2023-03-06T10:41:11.507Z,91708.91
2023-03-06T10:44:44.110Z,91710.41
2023-03-06T10:47:31.646Z,91709.78
2023-03-06T10:50:01.452Z,91703.88
2023-03-06T10:52:30.350Z,91709.22
2023-03-06T10:55:28.252Z,91703.56
2023-03-06T10:57:54.861Z,91709.22
2023-03-06T11:00:30.683Z,91713.75
2023-03-06T11:03:20.875Z,91706.78
2023-03-06T11:05:55.191Z,91703.88
2023-03-06T11:08:22.702Z,91698.22
2023-03-06T11:11:06.874Z,91713.78
2023-03-06T11:13:38.345Z,91712.22
2023-03-06T11:16:25.940Z,91707.78
2023-03-06T11:18:59.392Z,91695.41
2023-03-06T11:21:29.165Z,91700.66
2023-03-06T11:24:04.058Z,91686.56
2023-03-06T11:26:35.974Z,91688.94
2023-03-06T11:29:26.557Z,91687.56
2023-03-06T11:32:02.835Z,91695.78
2023-03-06T11:34:53.090Z,91696.38
2023-03-06T11:37:42.718Z,91700.72
2023-03-06T11:40:09.216Z,91687.75
2023-03-06T11:42:43.407Z,91692.16
2023-03-06T11:45:46.207Z,91682.06
2023-03-06T11:48:15.903Z,91676.44
2023-03-06T11:50:53.549Z,91678.03
2023-03-06T11:53:22.880Z,91683.63
2023-03-06T11:56:19.686Z,91675.22
2023-03-06T11:59:04.845Z,91671.84
2023-03-06T12:02:02.165Z,91668.41
2023-03-06T12:05:00.943Z,91671.50
2023-03-06T12:07:40.279Z,91668.31
2023-03-06T12:10:23.327Z,91662.56
2023-03-06T12:13:05.436Z,91664.31
2023-03-06T12:15:47.450Z,91660.72
2023-03-06T12:18:19.990Z,91664.72
2023-03-06T12:21:03.202Z,91668.31
2023-03-06T12:23:51.250Z,91660.16
2023-03-06T12:26:44.562Z,91662.47
2023-03-06T12:29:39.372Z,91656.94
2023-03-06T12:32:27.227Z,91654.47
2023-03-06T12:35:28.613Z,91655.41
2023-03-06T12:38:32.602Z,91647.75
2023-03-06T12:41:40.886Z,91647.19
2023-03-06T12:44:34.787Z,91644.72
2023-03-06T12:47:23.982Z,91637.56
2023-03-06T12:49:58.222Z,91652.53
2023-03-06T12:52:31.230Z,91645.03
2023-03-06T12:55:01.161Z,91630.41
2023-03-06T12:57:27.723Z,91637.69
2023-03-06T12:59:55.015Z,91639.47
2023-03-06T13:03:02.220Z,91630.25
2023-03-06T13:05:42.138Z,91629.97
2023-03-06T13:08:11.253Z,91623.59
2023-03-06T13:10:40.129Z,91625.16
2023-03-06T13:13:24.725Z,91627.09
2023-03-06T13:16:03.392Z,91633.06
2023-03-06T13:18:32.812Z,91623.59
2023-03-06T13:20:59.212Z,91629.97
2023-03-06T13:23:43.158Z,91626.97
2023-03-06T13:26:24.491Z,91629.59
2023-03-06T13:28:53.910Z,91621.28
2023-03-06T13:31:32.555Z,91638.59
2023-03-06T13:34:00.667Z,91625.63
2023-03-06T13:36:30.434Z,91621.25
2023-03-06T13:39:10.624Z,91618.69
2023-03-06T13:41:41.302Z,91610.28
2023-03-06T13:44:25.763Z,91615.34
2023-03-06T13:47:24.558Z,91613.25
2023-03-06T13:49:51.077Z,91614.56
2023-03-06T13:52:35.852Z,91617.38
2023-03-06T13:55:30.142Z,91624.81
2023-03-06T13:57:59.230Z,91635.31
2023-03-06T14:00:37.938Z,91632.22
2023-03-06T14:03:10.425Z,91633.09
2023-03-06T14:05:46.104Z,91622.16
2023-03-06T14:08:21.689Z,91626.31
2023-03-06T14:10:59.474Z,91626.00
2023-03-06T14:13:35.182Z,91632.75
2023-03-06T14:16:17.245Z,91631.22
2023-03-06T14:18:48.091Z,91625.88
2023-03-06T14:21:21.276Z,91621.34
2023-03-06T14:24:00.417Z,91624.47
2023-03-06T14:26:31.614Z,91618.94
2023-03-06T14:29:00.483Z,91618.94
2023-03-06T14:31:42.572Z,91616.44
2023-03-06T14:34:17.421Z,91615.00
2023-03-06T14:36:47.488Z,91618.09
2023-03-06T14:39:23.104Z,91622.09
2023-03-06T14:41:49.995Z,91621.94
2023-03-06T14:44:22.022Z,91613.75
2023-03-06T14:46:51.620Z,91618.72
2023-03-06T14:49:20.083Z,91616.59
2023-03-06T14:51:52.209Z,91620.06
2023-03-06T14:54:26.154Z,91621.09
2023-03-06T14:56:58.044Z,91621.47
2023-03-06T14:59:28.460Z,91621.78
2023-03-06T15:02:04.268Z,91615.75
2023-03-06T15:04:35.051Z,91615.34
2023-03-06T15:07:09.747Z,91620.13
2023-03-06T15:09:37.549Z,91618.63
2023-03-06T15:12:03.975Z,91613.97
2023-03-06T15:14:32.123Z,91616.09
2023-03-06T15:17:16.933Z,91612.03
2023-03-06T15:19:45.183Z,91599.63
2023-03-06T15:22:41.913Z,91596.41
2023-03-06T15:25:28.072Z,91593.69
2023-03-06T15:27:57.598Z,91605.44
2023-03-06T15:30:29.102Z,91599.19
2023-03-06T15:33:18.151Z,91591.47
2023-03-06T15:36:01.757Z,91594.41
2023-03-06T15:38:41.927Z,91590.97
2023-03-06T15:41:33.489Z,91590.31
2023-03-06T15:44:02.541Z,91588.84
2023-03-06T15:46:29.544Z,91590.56
2023-03-06T15:49:06.902Z,91599.66
2023-03-06T15:51:33.372Z,91595.44
2023-03-06T15:54:11.188Z,91599.34
2023-03-06T15:56:40.962Z,91603.13
2023-03-06T15:59:10.842Z,91602.03
2023-03-06T16:01:37.528Z,91590.25
2023-03-06T16:04:04.064Z,91594.81
2023-03-06T16:06:30.540Z,91602.31
2023-03-06T16:08:56.948Z,91598.47
2023-03-06T16:11:35.344Z,91594.44
2023-03-06T16:14:21.012Z,91602.31
2023-03-06T16:16:49.237Z,91606.75
2023-03-06T16:19:26.455Z,91597.22
2023-03-06T16:21:55.481Z,91603.09
2023-03-06T16:24:22.042Z,91601.91
2023-03-06T16:26:53.322Z,91601.84
2023-03-06T16:29:26.439Z,91603.56
2023-03-06T16:31:55.279Z,91601.25
2023-03-06T16:34:21.919Z,91601.03
2023-03-06T16:36:49.322Z,91601.66
2023-03-06T16:39:21.269Z,91603.22
2023-03-06T16:41:49.298Z,91609.66
2023-03-06T16:44:15.878Z,91608.53
2023-03-06T16:46:45.728Z,91616.06
2023-03-06T16:49:20.825Z,91606.81
2023-03-06T16:51:47.360Z,91607.84
2023-03-06T16:54:13.914Z,91610.56
2023-03-06T16:56:40.588Z,91606.19
2023-03-06T16:59:07.191Z,91615.13
2023-03-06T17:01:34.007Z,91617.44
2023-03-06T17:04:00.610Z,91613.72
2023-03-06T17:06:27.084Z,91631.72
2023-03-06T17:08:53.692Z,91634.66
2023-03-06T17:11:20.388Z,91622.47
2023-03-06T17:13:48.047Z,91624.34
2023-03-06T17:16:18.228Z,91626.56
2023-03-06T17:18:45.626Z,91626.06
2023-03-06T17:21:15.630Z,91622.91
2023-03-06T17:23:42.816Z,91632.53
2023-03-06T17:26:10.876Z,91627.25
2023-03-06T17:28:38.203Z,91631.88
2023-03-06T17:31:34.045Z,91637.50
2023-03-06T17:34:00.608Z,91631.88
2023-03-06T17:36:31.151Z,91630.50
2023-03-06T17:38:59.505Z,91631.97
2023-03-06T17:41:26.689Z,91638.81
2023-03-06T17:43:55.732Z,91630.34
2023-03-06T17:46:22.281Z,91638.88
2023-03-06T17:48:48.737Z,91635.00
2023-03-06T17:51:15.129Z,91637.69
2023-03-06T17:53:41.658Z,91638.47
2023-03-06T17:56:10.994Z,91637.69
2023-03-06T17:58:37.393Z,91635.66
2023-03-06T18:01:27.152Z,91644.13
2023-03-06T18:03:53.726Z,91641.16
2023-03-06T18:06:21.990Z,91647.13
2023-03-06T18:08:51.021Z,91642.41
2023-03-06T18:11:19.114Z,91650.84
2023-03-06T18:13:46.393Z,91644.03
2023-03-06T18:16:15.700Z,91649.63
2023-03-06T18:18:42.167Z,91645.22
2023-03-06T18:21:11.493Z,91651.66
2023-03-06T18:23:38.912Z,91650.22
2023-03-06T18:26:11.655Z,91649.09
2023-03-06T18:28:42.184Z,91654.50
2023-03-06T18:31:14.959Z,91654.97
2023-03-06T18:33:41.440Z,91654.16
2023-03-06T18:36:08.060Z,91660.22
2023-03-06T18:38:34.506Z,91656.44
2023-03-06T18:41:00.922Z,91662.16
2023-03-06T18:43:27.315Z,91657.00
2023-03-06T18:45:57.407Z,91661.03
2023-03-06T18:48:24.428Z,91667.00
2023-03-06T18:50:51.114Z,91666.13
2023-03-06T18:53:18.329Z,91667.34
2023-03-06T18:55:48.584Z,91659.47
2023-03-06T18:58:15.018Z,91653.19
2023-03-06T19:00:41.611Z,91668.13
2023-03-06T19:03:08.081Z,91670.97
2023-03-06T19:05:38.778Z,91655.44
2023-03-06T19:08:05.385Z,91656.78
2023-03-06T19:10:34.852Z,91662.41
2023-03-06T19:13:01.240Z,91656.22
2023-03-06T19:15:27.667Z,91657.94
2023-03-06T19:17:54.074Z,91659.19
2023-03-06T19:20:20.507Z,91666.16
2023-03-06T19:22:46.890Z,91657.28
2023-03-06T19:25:13.391Z,91659.19
2023-03-06T19:27:39.993Z,91655.03
2023-03-06T19:30:07.240Z,91662.09
2023-03-06T19:32:33.757Z,91659.19
2023-03-06T19:35:00.335Z,91663.22
2023-03-06T19:37:26.829Z,91657.28
2023-03-06T19:39:54.217Z,91661.66
2023-03-06T19:42:21.031Z,91664.69
2023-03-06T19:44:47.728Z,91663.34
2023-03-06T19:47:14.143Z,91667.94
2023-03-06T19:49:40.669Z,91662.91
2023-03-06T19:52:07.572Z,91665.47
2023-03-06T19:54:34.061Z,91659.34
2023-03-06T19:57:00.466Z,91654.16
2023-03-06T19:59:26.904Z,91654.47
2023-03-06T20:01:53.332Z,91655.28
2023-03-06T20:04:19.793Z,91651.13
2023-03-06T20:06:49.507Z,91649.09
2023-03-06T20:09:16.005Z,91647.84
2023-03-06T20:11:42.499Z,91649.56
2023-03-06T20:14:10.606Z,91637.28
2023-03-06T20:16:37.234Z,91641.78
2023-03-06T20:19:04.744Z,91635.91
2023-03-06T20:21:35.409Z,91636.22
2023-03-06T20:24:01.814Z,91638.03
2023-03-06T20:26:29.545Z,91637.03
2023-03-06T20:28:56.733Z,91633.91
2023-03-06T20:31:26.904Z,91638.81
2023-03-06T20:33:54.835Z,91634.56
2023-03-06T20:36:27.927Z,91637.63
2023-03-06T20:38:55.441Z,91643.13
2023-03-06T20:41:24.903Z,91641.91
2023-03-06T20:43:51.703Z,91639.06
2023-03-06T20:46:19.719Z,91639.75
2023-03-06T20:48:49.157Z,91626.56
2023-03-06T20:51:21.480Z,91631.31
2023-03-06T20:53:50.110Z,91637.84
2023-03-06T20:56:19.666Z,91629.88
2023-03-06T20:58:46.388Z,91628.59
2023-03-06T21:01:24.887Z,91633.91
2023-03-06T21:03:53.292Z,91633.34
2023-03-06T21:06:20.854Z,91634.53
2023-03-06T21:08:50.761Z,91633.06
2023-03-06T21:11:18.116Z,91631.31
2023-03-06T21:13:44.981Z,91625.34
2023-03-06T21:16:17.277Z,91627.59
2023-03-06T21:18:43.855Z,91624.84
2023-03-06T21:21:21.982Z,91629.25
2023-03-06T21:23:48.650Z,91619.78
2023-03-06T21:26:18.433Z,91615.38
2023-03-06T21:28:44.890Z,91618.97
2023-03-06T21:31:13.243Z,91614.88
2023-03-06T21:33:40.118Z,91616.91
2023-03-06T21:36:07.280Z,91615.81
2023-03-06T21:38:33.972Z,91617.03
2023-03-06T21:41:18.398Z,91615.69
2023-03-06T21:43:45.042Z,91623.66
2023-03-06T21:46:13.546Z,91619.25
2023-03-06T21:48:40.059Z,91616.66
2023-03-06T21:51:08.216Z,91616.91
2023-03-06T21:53:35.186Z,91620.69
2023-03-06T21:56:02.862Z,91617.41
2023-03-06T21:58:29.773Z,91613.03
2023-03-06T22:00:56.829Z,91610.47
2023-03-06T22:03:23.308Z,91604.75
2023-03-06T22:05:51.851Z,91597.31
2023-03-06T22:08:21.260Z,91600.56
2023-03-06T22:10:48.890Z,91596.50
2023-03-06T22:13:16.168Z,91600.13
2023-03-06T22:15:50.300Z,91593.47
2023-03-06T22:18:16.716Z,91593.78
2023-03-06T22:20:43.158Z,91587.59
2023-03-06T22:23:09.570Z,91589.03
2023-03-06T22:25:35.995Z,91587.78
2023-03-06T22:28:02.479Z,91589.66
2023-03-06T22:30:28.875Z,91585.69
2023-03-06T22:32:55.379Z,91596.59
2023-03-06T22:35:21.798Z,91582.66
2023-03-06T22:37:48.192Z,91578.56
2023-03-06T22:40:14.686Z,91576.00
2023-03-06T22:42:41.087Z,91577.47
2023-03-06T22:45:08.260Z,91578.28
2023-03-06T22:47:38.001Z,91585.69
2023-03-06T22:50:05.557Z,91579.03
2023-03-06T22:52:33.091Z,91577.81
2023-03-06T22:54:59.508Z,91577.09
2023-03-06T22:57:25.907Z,91578.56
2023-03-06T22:59:52.353Z,91577.34
2023-03-06T23:02:18.799Z,91579.00
2023-03-06T23:04:52.128Z,91582.66
2023-03-06T23:07:19.868Z,91569.16
2023-03-06T23:09:47.192Z,91578.28
2023-03-06T23:12:32.537Z,91572.69
2023-03-06T23:15:17.418Z,91563.66
2023-03-06T23:18:02.428Z,91561.75
2023-03-06T23:20:47.397Z,91566.13
2023-03-06T23:23:32.213Z,91571.38
2023-03-06T23:26:00.259Z,91561.56
2023-03-06T23:28:27.768Z,91561.56
2023-03-06T23:30:54.213Z,91560.88
2023-03-06T23:33:20.726Z,91564.97
2023-03-06T23:35:47.275Z,91564.97
2023-03-06T23:38:13.942Z,91559.00
2023-03-06T23:40:40.710Z,91561.28
2023-03-06T23:43:07.214Z,91556.59
2023-03-06T23:45:33.814Z,91558.72
2023-03-06T23:48:00.210Z,91557.16
2023-03-06T23:50:26.695Z,91552.94
2023-03-06T23:52:53.967Z,91557.66
2023-03-06T23:55:20.563Z,91557.16
2023-03-06T23:57:47.033Z,91552.16
